Irish Sea — WDB5555 — position and weather

sailwx.info

Track history (hours):
 
Tides and Currents Weather Stations Pressure Air Temp Water Temp Dewpoint Dewpoint Depression Visibility Wind Speed Wind Dir Waves Ship Positions

Irish Sea

Owner: Kirby Offshore Marine, LLC, Staten Island, NY. More information available from US FCC via Universal Licensing System and Coast Guard Vessel Documentation Center.

Last reported at 2015-Mar-31 14:32 UTC. Time now 2015-Mar-31 15:28 UTC.
Position N 39°53' W 075°11'.

Length 152 m; draft 6.8 m.

Type: Ship (hazmat cat B). MMSI: 366910920.

Date/timePositionNaut miles runAvg speedWind from/ knotsBaromVisibWave heightAir tempDewpointWater temp
2015-Mar-31 14:32N 39°53' W 075°11'1 0.8
2015-Mar-31 13:33N 39°53' W 075°12'3 3.0
2015-Mar-31 12:33N 39°51' W 075°15'0 0.0
2015-Mar-31 11:33N 39°51' W 075°15'0 0.0
2015-Mar-31 10:33N 39°51' W 075°15'0 0.0
2015-Mar-31 09:33N 39°51' W 075°15'0 0.0
2015-Mar-31 08:33N 39°51' W 075°15'0 0.0
2015-Mar-31 07:33N 39°51' W 075°15'0 0.0
2015-Mar-31 06:33N 39°51' W 075°15'0 0.0
2015-Mar-31 05:33N 39°51' W 075°15'0 0.0
2015-Mar-31 04:33N 39°51' W 075°15'0 0.0
2015-Mar-31 03:33N 39°51' W 075°15'0 0.0
2015-Mar-31 02:33N 39°51' W 075°15'0 0.0
2015-Mar-31 01:33N 39°51' W 075°15'0 0.0
2015-Mar-31 00:33N 39°51' W 075°15'0 0.0
2015-Mar-30 23:33N 39°51' W 075°15'0 0.0
2015-Mar-30 22:33N 39°51' W 075°15'1 0.6
2015-Mar-30 21:34N 39°51' W 075°14'3 3.0
2015-Mar-30 20:30N 39°53' W 075°11'0 0.0
2015-Mar-30 19:33N 39°53' W 075°11'0 0.0
2015-Mar-30 18:33N 39°53' W 075°11'0 0.0
2015-Mar-30 17:33N 39°53' W 075°11'0 0.0
2015-Mar-30 16:33N 39°53' W 075°11'0 0.0
2015-Mar-30 15:33N 39°53' W 075°11'0 0.0
2015-Mar-30 14:33N 39°53' W 075°11'0 0.0
2015-Mar-30 13:33N 39°53' W 075°11'0 0.0
2015-Mar-30 12:33N 39°53' W 075°11'0 0.0
2015-Mar-30 11:33N 39°53' W 075°11'0 0.0
2015-Mar-30 10:33N 39°53' W 075°11'1 0.8
2015-Mar-30 09:33N 39°53' W 075°12'2 2.1
2015-Mar-30 08:33N 39°51' W 075°14'0 0.1
2015-Mar-30 07:33N 39°51' W 075°14'0 0.0
2015-Mar-30 06:34N 39°51' W 075°14'0 0.0
2015-Mar-30 05:33N 39°51' W 075°14'0 0.1
2015-Mar-30 04:33N 39°51' W 075°14'0 0.1
2015-Mar-30 03:33N 39°51' W 075°14'0 0.1
2015-Mar-30 02:33N 39°51' W 075°14'0 0.0
2015-Mar-30 01:33N 39°51' W 075°14'0 0.0
2015-Mar-30 00:33N 39°51' W 075°14'0 0.0
2015-Mar-29 23:33N 39°51' W 075°14'0 0.0
2015-Mar-29 22:33N 39°51' W 075°14'0 0.0
2015-Mar-29 21:33N 39°51' W 075°14'0 0.2
2015-Mar-29 20:33N 39°51' W 075°14'0 0.0
2015-Mar-29 19:33N 39°51' W 075°14'0 0.0
2015-Mar-29 18:33N 39°51' W 075°14'0 0.0
2015-Mar-29 17:33N 39°51' W 075°14'0 0.0
2015-Mar-29 16:33N 39°51' W 075°14'5 5.2
2015-Mar-29 15:33N 39°51' W 075°21'9 8.8
2015-Mar-29 14:33N 39°45' W 075°29'9 9.1
2015-Mar-29 13:33N 39°37' W 075°35'9 9.3
2015-Mar-29 12:33N 39°28' W 075°34'1010.2
2015-Mar-29 11:33N 39°20' W 075°25'1010.1
2015-Mar-29 10:33N 39°12' W 075°17'20 9.7
2015-Mar-29 08:29N 38°54' W 075°05'8 8.5
2015-Mar-29 07:33N 38°48' W 074°58'5210.0
2015-Mar-29 02:20N 39°26' W 074°11'810.2
2015-Mar-29 01:33N 39°33' W 074°06'1010.3
2015-Mar-29 00:33N 39°42' W 073°60'1010.0
2015-Mar-28 23:33N 39°52' W 073°57'3310.1
2015-Mar-28 20:16N 40°25' W 073°54'6 8.1
2015-Mar-28 19:28N 40°31' W 073°58'8 8.7
2015-Mar-28 18:33N 40°38' W 074°03'8 7.7
2015-Mar-28 17:33N 40°44' W 073°58'5 0.3
2015-Mar-28 03:26N 40°48' W 073°54'0 0.0
2015-Mar-27 23:11N 40°48' W 073°54'0 0.0
2015-Mar-27 21:31N 40°48' W 073°54'2 2.5
2015-Mar-27 20:32N 40°46' W 073°57'6 5.8
2015-Mar-27 19:33N 40°41' W 074°01'4 4.5
2015-Mar-27 18:33N 40°37' W 074°03'6 5.8
2015-Mar-27 17:33N 40°32' W 074°01'43 7.1
2015-Mar-27 11:32N 39°49' W 073°57'7 6.9
2015-Mar-27 10:33N 39°42' W 073°60'7 7.1
2015-Mar-27 09:33N 39°36' W 074°04'8 7.3
2015-Mar-27 08:31N 39°29' W 074°09'53 7.4
2015-Mar-27 01:23N 38°49' W 074°53'6 7.1
2015-Mar-27 00:33N 38°48' W 075°01'8 7.8
2015-Mar-26 23:33N 38°55' W 075°05'9 8.5
2015-Mar-26 22:32N 39°03' W 075°10'9 8.4
2015-Mar-26 21:28N 39°11' W 075°16'7 7.4
2015-Mar-26 20:33N 39°16' W 075°21'6 6.3
2015-Mar-26 19:33N 39°21' W 075°26'5 5.5
2015-Mar-26 18:33N 39°25' W 075°31'6 5.5
2015-Mar-26 17:34N 39°30' W 075°33'5 5.0
2015-Mar-26 16:34N 39°35' W 075°35'0 0.1
2015-Mar-26 15:32N 39°35' W 075°36'0 0.0
2015-Mar-26 14:32N 39°35' W 075°36'0 0.0
2015-Mar-26 13:32N 39°35' W 075°36'0 0.0
2015-Mar-26 12:32N 39°35' W 075°36'0 0.0
2015-Mar-26 11:32N 39°35' W 075°36'0 0.0
2015-Mar-26 10:32N 39°35' W 075°36'0 0.0
2015-Mar-26 09:32N 39°35' W 075°36'0 0.0
2015-Mar-26 08:32N 39°35' W 075°36'0 0.0
2015-Mar-26 07:32N 39°35' W 075°36'0 0.0
2015-Mar-26 06:32N 39°35' W 075°36'0 0.0
2015-Mar-26 05:32N 39°35' W 075°36'0 0.0
2015-Mar-26 04:32N 39°35' W 075°36'0 0.0
2015-Mar-26 03:32N 39°35' W 075°36'0 0.0
2015-Mar-26 02:32N 39°35' W 075°36'0 0.0
2015-Mar-26 01:32N 39°35' W 075°36'0 0.0
2015-Mar-26 00:32N 39°35' W 075°36'0 0.0
2015-Mar-25 23:32N 39°35' W 075°36'0 0.0
2015-Mar-25 22:32N 39°35' W 075°36'0 0.0
2015-Mar-25 21:32N 39°35' W 075°36'0 0.0
2015-Mar-25 20:32N 39°35' W 075°36'2 2.1
2015-Mar-25 19:34N 39°34' W 075°33'5 4.5
2015-Mar-25 18:33N 39°39' W 075°33'5 4.7
2015-Mar-25 17:33N 39°43' W 075°30'0 0.1
2015-Mar-25 16:33N 39°43' W 075°30'0 0.1
2015-Mar-25 15:30N 39°43' W 075°30'63 1.9
2015-Mar-24 05:34N 39°29' W 074°10'10 9.9
2015-Mar-24 04:34N 39°38' W 074°04'1010.1
2015-Mar-24 03:33N 39°47' W 073°59'48 9.5
2015-Mar-23 22:33N 40°35' W 074°02'1212.0
2015-Mar-23 21:33N 40°47' W 073°60'1 0.0
2015-Mar-22 12:33N 40°46' W 074°00'7 7.3
2015-Mar-22 11:33N 40°39' W 074°03'49 6.9
2015-Mar-22 04:32N 39°51' W 073°57'7 7.2
2015-Mar-22 03:32N 39°44' W 073°59'7 7.6
2015-Mar-22 02:33N 39°37' W 074°03'8 7.7
2015-Mar-22 01:33N 39°30' W 074°08'51 7.2
2015-Mar-21 18:25N 38°51' W 074°49'7 7.6
2015-Mar-21 17:33N 38°48' W 074°57'8 7.7
2015-Mar-21 16:33N 38°53' W 075°04'11 8.3
2015-Mar-21 15:14N 39°03' W 075°10'5 7.1
2015-Mar-21 14:33N 39°08' W 075°13'  
Track history (hours):
 
Tides and Currents Weather Stations Pressure Air Temp Water Temp Dewpoint Dewpoint Depression Visibility Wind Speed Wind Dir Waves Ship Positions

Irish Sea

Owner: Kirby Offshore Marine, LLC, Staten Island, NY. More information available from US FCC via Universal Licensing System and Coast Guard Vessel Documentation Center.

Last reported at 2015-Mar-31 14:32 UTC. Time now 2015-Mar-31 15:28 UTC.
Position N 39°53' W 075°11'.

Length 152 m; draft 6.8 m.

Type: Ship (hazmat cat B). MMSI: 366910920.

Date/timePositionNaut miles runAvg speedWind from/ knotsBaromVisibWave heightAir tempDewpointWater temp
2015-Mar-31 14:32N 39°53' W 075°11'1 0.8
2015-Mar-31 13:33N 39°53' W 075°12'3 3.0
2015-Mar-31 12:33N 39°51' W 075°15'0 0.0
2015-Mar-31 11:33N 39°51' W 075°15'0 0.0
2015-Mar-31 10:33N 39°51' W 075°15'0 0.0
2015-Mar-31 09:33N 39°51' W 075°15'0 0.0
2015-Mar-31 08:33N 39°51' W 075°15'0 0.0
2015-Mar-31 07:33N 39°51' W 075°15'0 0.0
2015-Mar-31 06:33N 39°51' W 075°15'0 0.0
2015-Mar-31 05:33N 39°51' W 075°15'0 0.0
2015-Mar-31 04:33N 39°51' W 075°15'0 0.0
2015-Mar-31 03:33N 39°51' W 075°15'0 0.0
2015-Mar-31 02:33N 39°51' W 075°15'0 0.0
2015-Mar-31 01:33N 39°51' W 075°15'0 0.0
2015-Mar-31 00:33N 39°51' W 075°15'0 0.0
2015-Mar-30 23:33N 39°51' W 075°15'0 0.0
2015-Mar-30 22:33N 39°51' W 075°15'1 0.6
2015-Mar-30 21:34N 39°51' W 075°14'3 3.0
2015-Mar-30 20:30N 39°53' W 075°11'0 0.0
2015-Mar-30 19:33N 39°53' W 075°11'0 0.0
2015-Mar-30 18:33N 39°53' W 075°11'0 0.0
2015-Mar-30 17:33N 39°53' W 075°11'0 0.0
2015-Mar-30 16:33N 39°53' W 075°11'0 0.0
2015-Mar-30 15:33N 39°53' W 075°11'0 0.0
2015-Mar-30 14:33N 39°53' W 075°11'0 0.0
2015-Mar-30 13:33N 39°53' W 075°11'0 0.0
2015-Mar-30 12:33N 39°53' W 075°11'0 0.0
2015-Mar-30 11:33N 39°53' W 075°11'0 0.0
2015-Mar-30 10:33N 39°53' W 075°11'1 0.8
2015-Mar-30 09:33N 39°53' W 075°12'2 2.1
2015-Mar-30 08:33N 39°51' W 075°14'0 0.1
2015-Mar-30 07:33N 39°51' W 075°14'0 0.0
2015-Mar-30 06:34N 39°51' W 075°14'0 0.0
2015-Mar-30 05:33N 39°51' W 075°14'0 0.1
2015-Mar-30 04:33N 39°51' W 075°14'0 0.1
2015-Mar-30 03:33N 39°51' W 075°14'0 0.1
2015-Mar-30 02:33N 39°51' W 075°14'0 0.0
2015-Mar-30 01:33N 39°51' W 075°14'0 0.0
2015-Mar-30 00:33N 39°51' W 075°14'0 0.0
2015-Mar-29 23:33N 39°51' W 075°14'0 0.0
2015-Mar-29 22:33N 39°51' W 075°14'0 0.0
2015-Mar-29 21:33N 39°51' W 075°14'0 0.2
2015-Mar-29 20:33N 39°51' W 075°14'0 0.0
2015-Mar-29 19:33N 39°51' W 075°14'0 0.0
2015-Mar-29 18:33N 39°51' W 075°14'0 0.0
2015-Mar-29 17:33N 39°51' W 075°14'0 0.0
2015-Mar-29 16:33N 39°51' W 075°14'5 5.2
2015-Mar-29 15:33N 39°51' W 075°21'9 8.8
2015-Mar-29 14:33N 39°45' W 075°29'9 9.1
2015-Mar-29 13:33N 39°37' W 075°35'9 9.3
2015-Mar-29 12:33N 39°28' W 075°34'1010.2
2015-Mar-29 11:33N 39°20' W 075°25'1010.1
2015-Mar-29 10:33N 39°12' W 075°17'20 9.7
2015-Mar-29 08:29N 38°54' W 075°05'8 8.5
2015-Mar-29 07:33N 38°48' W 074°58'5210.0
2015-Mar-29 02:20N 39°26' W 074°11'810.2
2015-Mar-29 01:33N 39°33' W 074°06'1010.3
2015-Mar-29 00:33N 39°42' W 073°60'1010.0
2015-Mar-28 23:33N 39°52' W 073°57'3310.1
2015-Mar-28 20:16N 40°25' W 073°54'6 8.1
2015-Mar-28 19:28N 40°31' W 073°58'8 8.7
2015-Mar-28 18:33N 40°38' W 074°03'8 7.7
2015-Mar-28 17:33N 40°44' W 073°58'5 0.3
2015-Mar-28 03:26N 40°48' W 073°54'0 0.0
2015-Mar-27 23:11N 40°48' W 073°54'0 0.0
2015-Mar-27 21:31N 40°48' W 073°54'2 2.5
2015-Mar-27 20:32N 40°46' W 073°57'6 5.8
2015-Mar-27 19:33N 40°41' W 074°01'4 4.5
2015-Mar-27 18:33N 40°37' W 074°03'6 5.8
2015-Mar-27 17:33N 40°32' W 074°01'43 7.1
2015-Mar-27 11:32N 39°49' W 073°57'7 6.9
2015-Mar-27 10:33N 39°42' W 073°60'7 7.1
2015-Mar-27 09:33N 39°36' W 074°04'8 7.3
2015-Mar-27 08:31N 39°29' W 074°09'53 7.4
2015-Mar-27 01:23N 38°49' W 074°53'6 7.1
2015-Mar-27 00:33N 38°48' W 075°01'8 7.8
2015-Mar-26 23:33N 38°55' W 075°05'9 8.5
2015-Mar-26 22:32N 39°03' W 075°10'9 8.4
2015-Mar-26 21:28N 39°11' W 075°16'7 7.4
2015-Mar-26 20:33N 39°16' W 075°21'6 6.3
2015-Mar-26 19:33N 39°21' W 075°26'5 5.5
2015-Mar-26 18:33N 39°25' W 075°31'6 5.5
2015-Mar-26 17:34N 39°30' W 075°33'5 5.0
2015-Mar-26 16:34N 39°35' W 075°35'0 0.1
2015-Mar-26 15:32N 39°35' W 075°36'0 0.0
2015-Mar-26 14:32N 39°35' W 075°36'0 0.0
2015-Mar-26 13:32N 39°35' W 075°36'0 0.0
2015-Mar-26 12:32N 39°35' W 075°36'0 0.0
2015-Mar-26 11:32N 39°35' W 075°36'0 0.0
2015-Mar-26 10:32N 39°35' W 075°36'0 0.0
2015-Mar-26 09:32N 39°35' W 075°36'0 0.0
2015-Mar-26 08:32N 39°35' W 075°36'0 0.0
2015-Mar-26 07:32N 39°35' W 075°36'0 0.0
2015-Mar-26 06:32N 39°35' W 075°36'0 0.0
2015-Mar-26 05:32N 39°35' W 075°36'0 0.0
2015-Mar-26 04:32N 39°35' W 075°36'0 0.0
2015-Mar-26 03:32N 39°35' W 075°36'0 0.0
2015-Mar-26 02:32N 39°35' W 075°36'0 0.0
2015-Mar-26 01:32N 39°35' W 075°36'0 0.0
2015-Mar-26 00:32N 39°35' W 075°36'0 0.0
2015-Mar-25 23:32N 39°35' W 075°36'0 0.0
2015-Mar-25 22:32N 39°35' W 075°36'0 0.0
2015-Mar-25 21:32N 39°35' W 075°36'0 0.0
2015-Mar-25 20:32N 39°35' W 075°36'2 2.1
2015-Mar-25 19:34N 39°34' W 075°33'5 4.5
2015-Mar-25 18:33N 39°39' W 075°33'5 4.7
2015-Mar-25 17:33N 39°43' W 075°30'0 0.1
2015-Mar-25 16:33N 39°43' W 075°30'0 0.1
2015-Mar-25 15:30N 39°43' W 075°30'63 1.9
2015-Mar-24 05:34N 39°29' W 074°10'10 9.9
2015-Mar-24 04:34N 39°38' W 074°04'1010.1
2015-Mar-24 03:33N 39°47' W 073°59'48 9.5
2015-Mar-23 22:33N 40°35' W 074°02'1212.0
2015-Mar-23 21:33N 40°47' W 073°60'1 0.0
2015-Mar-22 12:33N 40°46' W 074°00'7 7.3
2015-Mar-22 11:33N 40°39' W 074°03'49 6.9
2015-Mar-22 04:32N 39°51' W 073°57'7 7.2
2015-Mar-22 03:32N 39°44' W 073°59'7 7.6
2015-Mar-22 02:33N 39°37' W 074°03'8 7.7
2015-Mar-22 01:33N 39°30' W 074°08'51 7.2
2015-Mar-21 18:25N 38°51' W 074°49'7 7.6
2015-Mar-21 17:33N 38°48' W 074°57'8 7.7
2015-Mar-21 16:33N 38°53' W 075°04'11 8.3
2015-Mar-21 15:14N 39°03' W 075°10'5 7.1
2015-Mar-21 14:33N 39°08' W 075°13'  

Dump ship's entire track history